ROMMA est une association bénévole à but non lucratif. Votre soutien est indispensable : ADHERER à ROMMA ou FAIRE un DON

Saint-Laurent-du-Pont - (38, Isère)

Chartreuse (410 m)   Longitude: 05° 43' 24" E   Latitude: 45° 23' 14" N Station partenaire n°156
 

Détail journalier du     <<     >>

Température Precipitation Humidité Pression Vent Dir Rafale Dir. rafale
Heure (°C) (mm) (%) (hPa) (km/h) (km/h)
01:00 21.6048100714S53SSE
02:00 21.8045100710S42SSO
03:00 21.304510077ENE27ENE
04:00 21.704210076E31NNO
05:00 21.304310068SE35SSO
06:00 21.804410069ESE40E
07:00 21.8045100610S31E
08:00 21.6047100611S40SO
09:00 21.6049100710S42SSO
10:00 22.204510079SSO34S
11:00 22.6043100711SSO32S
12:00 23.3041100611S44SSO
13:00 23.904210068S32SSO
14:00 26.1036100513S47SO
15:00 26.5036100414S44SSO
16:00 25.803510049S32SSE
17:00 25.6035100414SSO63S
18:00 25.1037100413SSO63S
19:00 23.9039100513SSO45S
20:00 22.9044100813SO53SO
21:00 22.2048100911S52SSE
22:00 19.40.865101111S52S
23:00 19.11.465101013E47SSO
minuit 15.64.687101110ENE53NE

Graphique du 20-10-2019

 

Serveur OMMA